Palisade, NE (69040)

2:13 PM CST on December 21, 2014 (GMT -0600)
HAYES CENTER | Change Station
CLOSE
Current Station
Personal Weather Station
Location: HAYES CENTER, NE
Elevation: 3035 ft
Nearby Weather Stations

Elev 3035 ft 40.49 °N, 101.04 °W | Updated 9 minutes ago

Mostly Cloudy
Mostly Cloudy
46.2 °F
Feels Like 46 °F
N
0.0
Wind Variable Wind from SSW
Gusts 1.0 mph

Today
High -- | Low -- °F
--% Chance of Precip.
Yesterday
High -- | Low -- °F
Precip. -- in
8:03 AM 5:21 PM
Waning Crescent, 0% visible
Pressure 29.63 in
Visibility 10.0 miles
Clouds Mostly Cloudy 10000 ft
Windchill 46 °F
Dew Point 31 °F
Humidity 56%
Rainfall 0.00 in
Snow Depth Not available.
UV 1 out of 12
Pollen .10 out of 12
Air Quality Not available.
Flu Activity Not available.
METAR KMCK 211953Z AUTO 17011KT 10SM BKN100 06/00 A2959 RMK AO2 SLP034 T00560000

More Conditions Fewer Conditions

Pressure 29.63 in
Visibility 10.0 miles
Clouds Mostly Cloudy 10000 ft
Windchill 46 °F
Dew Point 31 °F
Humidity 56%
Rainfall 0.00 in
Snow Depth Not available.
UV 1 out of 12
Pollen .10 out of 12
Air Quality Not available.
Flu Activity Not available.
METAR KMCK 211953Z AUTO 17011KT 10SM BKN100 06/00 A2959 RMK AO2 SLP034 T00560000

More Conditions Fewer Conditions

10-Day Weather Forecast

Almanac

Astronomy

Dec. 21, 2014 Rise Set
Actual Time
Civil Twilight
Nautical Twilight
Astronomical Twilight
Moon
Length of Visible Light
Length of Day
Tomorrow will be .
, % of the Moon is Illuminated

Today's Extremes

State Highs State Lows

Community

WunderPhotos

Upload Photos

1,779,469 photos uploaded!

WunderBlogs® & News

Nearby

Air Quality

  Air Quality AQ Index Pollutant
Not available.

Snow Depth

Station Depth Elevation

Earthquake Activity

City Distance Mag. Time & Date
Minimum magnitude displayed is 2.5.

Coastal Water Temperatures

Place Temperature

Nearby Weather Stations